Time;durP1;ratioP1;P1;durP2;ratioP2;P2;SDS_P1;SDS_P2;PMS_P1;PMS_P2;Temp;Humidity;BMP_temperature;BMP_pressure;BME280_temperature;BME280_humidity;BME280_pressure;Samples;Min_cycle;Max_cycle;Signal;HPM_P1;HPM_P2
2024/01/19 00:02:54;;;;;;;39.60;24.40;;;;;;;-1.42;100.00;95377.55;108852;1279;137971;-88
2024/01/19 00:06:32;;;;;;;42.40;26.80;;;;;;;-1.52;100.00;95388.55;109017;1282;22615;-88
2024/01/19 00:09:33;;;;;;;;;;;;;;;;;;;;;
2024/01/19 00:12:35;;;;;;;40.50;24.40;;;;;;;-1.60;100.00;95414.64;108827;1281;137566;-88
2024/01/19 00:15:38;;;;;;;42.40;26.80;;;;;;;-1.63;100.00;95437.43;108990;1281;25418;-88
2024/01/19 00:19:00;;;;;;;;;;;;;;;;;;;;;
2024/01/19 00:21:52;;;;;;;;;;;;;;;;;;;;;
2024/01/19 00:24:33;;;;;;;31.60;21.90;;;;;;;-1.64;100.00;95447.65;108799;1280;138701;-87
2024/01/19 00:27:24;;;;;;;31.00;21.60;;;;;;;-1.62;100.00;95443.63;108874;1277;22637;-87
2024/01/19 00:30:52;;;;;;;36.20;21.60;;;;;;;-1.60;100.00;95450.11;108845;1280;22560;-88
2024/01/19 00:34:02;;;;;;;35.70;22.20;;;;;;;-1.61;100.00;95472.23;108943;1281;22566;-89
2024/01/19 00:37:29;;;;;;;36.90;22.20;;;;;;;-1.62;100.00;95471.00;108599;1281;138902;-87
2024/01/19 00:40:13;;;;;;;33.40;20.60;;;;;;;-1.69;100.00;95471.71;108751;1284;22574;-88
2024/01/19 00:43:19;;;;;;;;;;;;;;;;;;;;;
2024/01/19 00:46:09;;;;;;;27.10;17.00;;;;;;;-1.61;100.00;95472.45;108722;1286;23196;-88
2024/01/19 00:48:39;;;;;;;30.50;19.60;;;;;;;-1.60;100.00;95471.97;108181;1290;138349;-85
2024/01/19 00:51:06;;;;;;;36.00;21.20;;;;;;;-1.64;100.00;95480.98;108061;1290;22655;-84
2024/01/19 00:53:33;;;;;;;32.50;19.90;;;;;;;-1.68;100.00;95480.64;107970;1291;23864;-85
2024/01/19 00:56:04;;;;;;;29.30;18.90;;;;;;;-1.70;100.00;95479.09;107790;1291;138296;-85
2024/01/19 00:58:34;;;;;;;32.20;19.50;;;;;;;-1.66;100.00;95480.64;107958;1287;22604;-85
2024/01/19 01:01:00;;;;;;;31.00;18.90;;;;;;;-1.60;100.00;95491.84;107948;1274;138139;-85
2024/01/19 01:03:28;;;;;;;31.50;19.40;;;;;;;-1.56;100.00;95500.70;108148;1283;22569;-85
2024/01/19 01:06:04;;;;;;;31.40;19.10;;;;;;;-1.52;100.00;95503.35;108085;1280;22622;-86
2024/01/19 01:08:34;;;;;;;36.30;22.20;;;;;;;-1.49;100.00;95508.45;108227;1289;22604;-85
2024/01/19 01:11:01;;;;;;;34.00;20.40;;;;;;;-1.47;100.00;95515.05;108242;1288;22600;-85
2024/01/19 01:13:55;;;;;;;26.60;17.60;;;;;;;-1.44;100.00;95524.30;108153;1280;138156;-88
2024/01/19 01:16:59;;;;;;;30.80;18.90;;;;;;;-1.49;100.00;95530.00;108499;1285;23875;-88
2024/01/19 01:20:17;;;;;;;;;;;;;;;;;;;;;
2024/01/19 01:23:30;;;;;;;;;;;;;;;;;;;;;
2024/01/19 01:26:57;;;;;;;;;;;;;;;;;;;;;
2024/01/19 01:30:05;;;;;;;;;;;;;;;;;;;;;
2024/01/19 01:32:46;;;;;;;27.50;18.50;;;;;;;-1.42;100.00;95530.46;108698;1279;22625;-88
2024/01/19 01:35:39;;;;;;;30.20;18.80;;;;;;;-1.43;100.00;95531.05;108451;1286;23566;-88
2024/01/19 01:38:41;;;;;;;;;;;;;;;;;;;;;
2024/01/19 01:42:08;;;;;;;27.90;18.30;;;;;;;-1.44;100.00;95536.92;104424;1280;5684312;-89
2024/01/19 01:45:16;;;;;;;;;;;;;;;;;;;;;
2024/01/19 01:48:45;;;;;;;26.40;18.60;;;;;;;-1.31;100.00;95538.96;108864;1280;22670;-89
2024/01/19 01:51:58;;;;;;;26.50;17.30;;;;;;;-1.24;100.00;95542.80;108953;1275;22540;-88
2024/01/19 01:54:39;;;;;;;30.40;19.80;;;;;;;-1.23;100.00;95544.77;108765;1282;136981;-88
2024/01/19 01:57:53;;;;;;;;;;;;;;;;;;;;;
2024/01/19 02:01:10;;;;;;;;;;;;;;;;;;;;;
2024/01/19 02:04:29;;;;;;;33.60;20.90;;;;;;;-1.27;100.00;95557.66;108942;1267;25410;-89
2024/01/19 02:07:31;;;;;;;36.10;21.40;;;;;;;-1.29;100.00;95552.75;108938;1278;138267;-88
2024/01/19 02:10:59;;;;;;;35.60;20.50;;;;;;;-1.29;100.00;95550.90;108762;1283;23070;-87
2024/01/19 02:14:05;;;;;;;;;;;;;;;;;;;;;
2024/01/19 02:16:39;;;;;;;31.20;19.30;;;;;;;-1.27;100.00;95568.19;108628;1278;22760;-88
2024/01/19 02:19:55;;;;;;;;;;;;;;;;;;;;;
2024/01/19 02:23:03;;;;;;;36.80;22.40;;;;;;;-1.36;100.00;95570.90;108792;1280;22688;-88
2024/01/19 02:26:10;;;;;;;;;;;;;;;;;;;;;
2024/01/19 02:28:46;;;;;;;28.70;18.40;;;;;;;-1.51;100.00;95581.27;108742;1285;22639;-87
2024/01/19 02:31:41;;;;;;;25.50;17.10;;;;;;;-1.54;100.00;95606.86;108532;1281;138029;-88
2024/01/19 02:34:46;;;;;;;;;;;;;;;;;;;;;
2024/01/19 02:37:30;;;;;;;;;;;;;;;-1.54;100.00;95616.69;108643;1283;138352;-88
2024/01/19 02:40:42;;;;;;;;;;;;;;;;;;;;;
2024/01/19 02:43:19;;;;;;;28.30;17.50;;;;;;;-1.56;100.00;95610.54;108857;1275;138237;-88
2024/01/19 02:46:06;;;;;;;35.90;22.00;;;;;;;-1.52;100.00;95594.91;108746;1283;22580;-88
2024/01/19 02:49:18;;;;;;;;;;;;;;;;;;;;;
2024/01/19 02:52:13;;;;;;;29.40;18.00;;;;;;;-1.47;100.00;95628.68;108844;1277;25431;-88
2024/01/19 02:55:19;;;;;;;27.70;17.50;;;;;;;-1.49;100.00;95629.17;108881;1275;138908;-88
2024/01/19 02:58:23;;;;;;;25.80;16.10;;;;;;;-1.48;100.00;95638.64;108781;1283;22743;-88
2024/01/19 03:01:41;;;;;;;28.20;18.70;;;;;;;-1.58;100.00;95651.66;108337;1289;137548;-88
2024/01/19 03:04:18;;;;;;;27.60;17.50;;;;;;;-1.67;100.00;95652.54;108552;1286;22581;-88
2024/01/19 03:07:29;;;;;;;26.00;18.30;;;;;;;-1.73;100.00;95658.64;108137;1286;138071;-88
2024/01/19 03:10:10;;;;;;;25.30;16.80;;;;;;;-1.76;100.00;95673.33;107826;1289;22587;-88
2024/01/19 03:12:36;;;;;;;26.30;17.00;;;;;;;-1.79;100.00;95677.84;107494;1289;139586;-88
2024/01/19 03:15:04;;;;;;;23.10;15.00;;;;;;;-1.83;100.00;95669.10;107551;1289;22579;-87
2024/01/19 03:17:33;;;;;;;17.20;13.80;;;;;;;-1.84;100.00;95675.34;107726;1289;22766;-88
2024/01/19 03:20:05;;;;;;;24.60;16.40;;;;;;;-1.86;100.00;95682.11;107504;1288;138267;-89
2024/01/19 03:22:31;;;;;;;;;;;;;;;-1.91;100.00;95681.84;107507;1287;22552;-88
2024/01/19 03:24:58;;;;;;;22.80;14.60;;;;;;;-1.88;100.00;95680.77;107536;1293;124604;-87
2024/01/19 03:27:25;;;;;;;24.80;14.20;;;;;;;-1.89;100.00;95682.85;107729;1289;22565;-89
2024/01/19 03:30:05;;;;;;;23.30;15.10;;;;;;;-1.92;100.00;95685.45;107614;1295;23062;-88
2024/01/19 03:32:36;;;;;;;23.40;14.10;;;;;;;-1.93;100.00;95687.23;108076;1289;137526;-87
2024/01/19 03:35:18;;;;;;;21.00;13.90;;;;;;;-1.94;100.00;95687.71;108394;1283;22574;-88
2024/01/19 03:38:04;;;;;;;19.00;13.50;;;;;;;-2.00;100.00;95692.77;108357;1287;138568;-88
2024/01/19 03:40:31;;;;;;;23.60;15.10;;;;;;;-2.02;100.00;95696.52;108260;1275;25454;-88
2024/01/19 03:43:02;;;;;;;20.30;14.30;;;;;;;-2.00;100.00;95704.66;108307;1276;138348;-88
2024/01/19 03:45:29;;;;;;;22.20;14.90;;;;;;;-2.00;100.00;95708.88;108441;1280;22538;-88
2024/01/19 03:47:56;;;;;;;21.30;14.60;;;;;;;-2.03;100.00;95710.65;108399;1280;22572;-87
2024/01/19 03:50:23;;;;;;;22.10;13.60;;;;;;;-2.04;100.00;95711.05;108345;1280;138449;-89
2024/01/19 03:52:50;;;;;;;20.30;13.60;;;;;;;-2.05;100.00;95715.56;108445;1283;22480;-88
2024/01/19 03:55:17;;;;;;;19.80;15.00;;;;;;;-2.06;100.00;95723.81;108333;1275;138053;-85
2024/01/19 03:57:44;;;;;;;23.80;16.00;;;;;;;-2.07;100.00;95713.36;108443;1283;25535;-86
2024/01/19 04:00:12;;;;;;;22.90;14.70;;;;;;;-2.13;100.00;95715.27;108343;1275;22588;-85
2024/01/19 04:02:39;;;;;;;22.30;13.50;;;;;;;-2.16;100.00;95717.55;108434;1279;137338;-86
2024/01/19 04:05:06;;;;;;;24.20;16.40;;;;;;;-2.14;100.00;95722.55;108522;1275;24365;-86
2024/01/19 04:07:32;;;;;;;25.20;15.50;;;;;;;-2.16;100.00;95720.49;108417;1277;137221;-85
2024/01/19 04:09:59;;;;;;;25.70;17.00;;;;;;;-2.19;100.00;95716.63;108465;1282;22601;-84
2024/01/19 04:12:26;;;;;;;22.60;15.20;;;;;;;-2.26;100.00;95708.89;108275;1279;139116;-85
2024/01/19 04:14:53;;;;;;;22.10;14.50;;;;;;;-2.30;100.00;95723.81;108393;1282;22566;-86
2024/01/19 04:17:19;;;;;;;22.30;13.70;;;;;;;-2.25;100.00;95748.85;108332;1283;24462;-85
2024/01/19 04:19:46;;;;;;;19.30;14.60;;;;;;;-2.19;100.00;95759.89;108162;1282;138511;-86
2024/01/19 04:22:13;;;;;;;26.30;17.70;;;;;;;-2.12;100.00;95771.23;108427;1277;25496;-86
2024/01/19 04:24:40;;;;;;;22.00;13.40;;;;;;;-2.06;100.00;95788.15;108261;1282;138866;-86
2024/01/19 04:27:06;;;;;;;25.40;15.20;;;;;;;-2.06;100.00;95797.42;108356;1276;22611;-85
2024/01/19 04:29:33;;;;;;;21.60;14.20;;;;;;;-2.11;100.00;95790.35;108514;1276;23266;-86
2024/01/19 04:32:00;;;;;;;21.10;13.80;;;;;;;-2.14;100.00;95779.20;108258;1276;138240;-85
2024/01/19 04:34:27;;;;;;;19.90;13.40;;;;;;;-2.17;100.00;95775.34;108375;1278;25348;-86
2024/01/19 04:36:54;;;;;;;17.10;11.80;;;;;;;-2.19;100.00;95798.77;108248;1278;138322;-86
2024/01/19 04:39:21;;;;;;;21.40;13.10;;;;;;;-2.25;100.00;95803.81;108474;1276;22604;-88
2024/01/19 04:41:47;;;;;;;21.70;13.90;;;;;;;-2.27;100.00;95808.61;108552;1277;22704;-86
2024/01/19 04:44:14;;;;;;;20.30;14.60;;;;;;;-2.30;100.00;95812.52;108225;1284;137616;-84
2024/01/19 04:46:41;;;;;;;19.00;13.10;;;;;;;-2.31;100.00;95820.04;108361;1280;22573;-85
2024/01/19 04:49:08;;;;;;;19.70;12.30;;;;;;;-2.31;100.00;95837.70;108149;1281;138757;-86
2024/01/19 04:51:34;;;;;;;19.10;11.30;;;;;;;-2.35;100.00;95845.15;108418;1283;22665;-85
2024/01/19 04:54:01;;;;;;;17.50;12.10;;;;;;;-2.39;100.00;95843.91;108397;1283;22701;-85
2024/01/19 04:56:28;;;;;;;20.90;13.80;;;;;;;-2.39;100.00;95844.44;108315;1277;138628;-86
2024/01/19 04:58:56;;;;;;;20.30;13.70;;;;;;;-2.37;100.00;95846.50;108396;1283;24444;-85
2024/01/19 05:01:23;;;;;;;15.10;11.90;;;;;;;-2.39;100.00;95840.21;108288;1282;138414;-86
2024/01/19 05:03:50;;;;;;;18.50;12.80;;;;;;;-2.37;100.00;95842.96;108388;1283;23301;-86
2024/01/19 05:06:16;;;;;;;17.10;12.80;;;;;;;-2.38;100.00;95859.31;108143;1280;138810;-85
2024/01/19 05:08:43;;;;;;;17.90;11.10;;;;;;;-2.44;100.00;95865.14;108334;1276;23277;-85
2024/01/19 05:11:13;;;;;;;14.10;9.70;;;;;;;-2.51;100.00;95869.70;108273;1282;23195;-89
2024/01/19 05:13:43;;;;;;;16.20;11.20;;;;;;;-2.58;100.00;95871.31;108216;1281;138237;-88
2024/01/19 05:16:10;;;;;;;16.40;11.10;;;;;;;-2.61;100.00;95877.77;108291;1283;22621;-88
2024/01/19 05:18:38;;;;;;;15.40;11.10;;;;;;;-2.63;100.00;95876.20;108236;1283;138993;-89
2024/01/19 05:21:06;;;;;;;19.40;12.20;;;;;;;-2.63;100.00;95882.67;108376;1281;22549;-87
2024/01/19 05:23:32;;;;;;;15.40;10.40;;;;;;;-2.65;100.00;95887.39;108528;1280;23226;-88
2024/01/19 05:26:04;;;;;;;13.50;10.40;;;;;;;-2.65;100.00;95886.59;108380;1283;138499;-88
2024/01/19 05:28:33;;;;;;;15.40;11.60;;;;;;;-2.69;100.00;95888.20;108348;1282;24313;-88
2024/01/19 05:31:00;;;;;;;14.10;9.70;;;;;;;-2.71;100.00;95888.50;108377;1278;138645;-88
2024/01/19 05:33:27;;;;;;;15.70;9.70;;;;;;;-2.73;100.00;95885.94;108319;1281;22543;-88
2024/01/19 05:35:54;;;;;;;13.60;8.90;;;;;;;-2.73;100.00;95886.80;108365;1280;22558;-88
2024/01/19 05:38:21;;;;;;;11.00;7.90;;;;;;;-2.74;100.00;95891.12;108396;1284;138351;-88
2024/01/19 05:40:51;;;;;;;10.10;8.30;;;;;;;-2.76;100.00;95892.94;108445;1283;23335;-88
2024/01/19 05:43:17;;;;;;;13.10;8.80;;;;;;;-2.76;100.00;95902.95;108296;1277;138324;-88
2024/01/19 05:45:44;;;;;;;14.10;7.70;;;;;;;-2.73;100.00;95909.89;108354;1284;22524;-88
2024/01/19 05:48:11;;;;;;;14.30;8.40;;;;;;;-2.71;100.00;95911.77;108443;1276;22567;-87
2024/01/19 05:50:37;;;;;;;15.30;10.30;;;;;;;-2.71;100.00;95920.89;108348;1284;138786;-85
2024/01/19 05:53:05;;;;;;;12.30;8.90;;;;;;;-2.70;100.00;95927.76;108426;1280;25244;-85
2024/01/19 05:55:31;;;;;;;15.50;9.70;;;;;;;-2.69;100.00;95933.16;108290;1280;138504;-85
2024/01/19 05:57:58;;;;;;;13.70;9.60;;;;;;;-2.72;100.00;95940.63;108342;1283;22590;-85
2024/01/19 06:00:25;;;;;;;21.20;8.70;;;;;;;-2.72;100.00;95949.44;108284;1283;138880;-85
2024/01/19 06:02:52;;;;;;;11.80;8.90;;;;;;;-2.70;100.00;95951.35;108333;1283;22559;-85
2024/01/19 06:05:18;;;;;;;14.00;9.60;;;;;;;-2.67;100.00;95958.90;108360;1280;22551;-85
2024/01/19 06:07:45;;;;;;;11.60;9.40;;;;;;;-2.65;100.00;95964.92;108253;1281;138453;-85
2024/01/19 06:10:12;;;;;;;12.30;9.20;;;;;;;-2.69;100.00;95961.63;108491;1275;22526;-85
2024/01/19 06:12:39;;;;;;;15.40;10.80;;;;;;;-2.73;100.00;95961.53;108330;1282;138366;-85
2024/01/19 06:15:06;;;;;;;15.00;9.60;;;;;;;-2.74;100.00;95966.56;108379;1280;22570;-85
2024/01/19 06:17:32;;;;;;;14.90;10.90;;;;;;;-2.77;100.00;95968.45;108423;1282;22567;-86
2024/01/19 06:19:59;;;;;;;16.20;10.90;;;;;;;-2.78;100.00;95972.44;108348;1280;138597;-85
2024/01/19 06:22:25;;;;;;;14.60;10.10;;;;;;;-2.80;100.00;95972.77;108415;1281;22592;-85
2024/01/19 06:24:52;;;;;;;15.50;10.70;;;;;;;-2.79;100.00;95974.36;108276;1282;138445;-86
2024/01/19 06:27:20;;;;;;;15.50;10.90;;;;;;;-2.81;100.00;95973.14;108427;1280;22559;-85
2024/01/19 06:29:47;;;;;;;15.70;11.20;;;;;;;-2.80;100.00;95975.27;108518;1278;23640;-85
2024/01/19 06:32:14;;;;;;;14.00;10.20;;;;;;;-2.83;100.00;95972.98;108314;1281;138537;-85
2024/01/19 06:34:41;;;;;;;15.90;10.60;;;;;;;-2.88;100.00;95974.89;108306;1282;22575;-85
2024/01/19 06:37:08;;;;;;;15.20;10.70;;;;;;;-2.91;100.00;95975.42;108180;1271;138426;-85
2024/01/19 06:39:35;;;;;;;16.50;11.80;;;;;;;-2.94;100.00;95978.99;108487;1276;22607;-85
2024/01/19 06:42:02;;;;;;;17.70;11.40;;;;;;;-2.95;100.00;95978.43;108426;1278;22541;-85
2024/01/19 06:44:29;;;;;;;16.90;10.50;;;;;;;-2.96;100.00;95981.88;108373;1282;138348;-85
2024/01/19 06:46:56;;;;;;;17.00;11.00;;;;;;;-2.96;100.00;95978.64;108356;1283;26339;-85
2024/01/19 06:49:22;;;;;;;15.90;10.70;;;;;;;-2.98;100.00;95986.21;108397;1278;138276;-85
2024/01/19 06:51:50;;;;;;;14.50;9.80;;;;;;;-2.97;100.00;95986.70;108448;1279;22654;-88
2024/01/19 06:54:24;;;;;;;14.00;10.30;;;;;;;-2.98;100.00;95986.05;108419;1259;138447;-88
2024/01/19 06:56:59;;;;;;;16.20;10.90;;;;;;;-3.01;100.00;95993.23;108639;1274;22588;-88
2024/01/19 06:59:26;;;;;;;14.70;10.60;;;;;;;-2.99;100.00;95993.93;108667;1276;22909;-88
2024/01/19 07:01:53;;;;;;;17.00;11.30;;;;;;;-2.94;100.00;95994.80;108447;1276;138514;-88
2024/01/19 07:04:34;;;;;;;17.40;12.20;;;;;;;-2.96;100.00;95998.28;108633;1279;22649;-88
2024/01/19 07:07:02;;;;;;;16.20;11.50;;;;;;;-2.98;100.00;95998.99;108593;1277;138614;-87
2024/01/19 07:09:43;;;;;;;15.70;9.90;;;;;;;-2.99;100.00;95998.17;108600;1278;23017;-89
2024/01/19 07:12:11;;;;;;;17.50;11.20;;;;;;;-3.02;100.00;95999.71;108644;1278;22615;-88
2024/01/19 07:14:46;;;;;;;16.30;10.80;;;;;;;-3.04;100.00;95985.98;108495;1275;138395;-88
2024/01/19 07:17:24;;;;;;;14.50;10.30;;;;;;;-3.01;100.00;95974.27;108835;1282;22526;-88
2024/01/19 07:19:51;;;;;;;18.30;12.00;;;;;;;-3.01;100.00;95973.77;108495;1275;139022;-89
2024/01/19 07:22:33;;;;;;;19.10;12.00;;;;;;;-3.04;100.00;95981.55;108631;1275;22584;-88
2024/01/19 07:25:17;;;;;;;20.30;12.30;;;;;;;-3.01;100.00;95972.76;108595;1275;138283;-89
2024/01/19 07:28:01;;;;;;;21.50;13.50;;;;;;;-2.97;100.00;95981.61;108724;1282;24367;-86
2024/01/19 07:30:28;;;;;;;18.70;12.50;;;;;;;-2.99;100.00;95989.38;108549;1275;138453;-85
2024/01/19 07:32:54;;;;;;;21.20;14.50;;;;;;;-2.99;100.00;95998.39;108536;1277;22562;-84
2024/01/19 07:35:21;;;;;;;19.10;12.40;;;;;;;-3.04;100.00;96005.61;108563;1279;22537;-85
2024/01/19 07:37:48;;;;;;;22.10;14.10;;;;;;;-3.03;100.00;96006.93;108369;1281;139009;-84
2024/01/19 07:40:14;;;;;;;22.20;16.00;;;;;;;-3.06;100.00;96013.73;108460;1284;22598;-85
2024/01/19 07:42:41;;;;;;;25.30;15.90;;;;;;;-3.05;100.00;96006.00;108333;1281;138488;-85
2024/01/19 07:45:08;;;;;;;25.80;15.20;;;;;;;-3.03;100.00;96004.87;108440;1280;22564;-85
2024/01/19 07:47:35;;;;;;;18.60;12.10;;;;;;;-3.02;100.00;96013.79;108449;1275;22700;-84
2024/01/19 07:50:04;;;;;;;21.20;14.10;;;;;;;-3.02;100.00;96016.02;108338;1281;138523;-84
2024/01/19 07:52:33;;;;;;;28.40;16.40;;;;;;;-3.01;100.00;96022.23;108519;1277;25613;-85
2024/01/19 07:55:04;;;;;;;20.50;14.20;;;;;;;-3.04;100.00;96023.73;108246;1282;139235;-85
2024/01/19 07:57:31;;;;;;;20.70;14.10;;;;;;;-3.03;100.00;96020.15;108490;1280;23254;-85
2024/01/19 07:59:57;;;;;;;24.20;15.00;;;;;;;-3.06;100.00;96021.68;108462;1275;22572;-85
2024/01/19 08:02:24;;;;;;;25.80;15.60;;;;;;;-3.01;100.00;96029.33;108329;1275;138468;-85
2024/01/19 08:04:51;;;;;;;18.40;12.60;;;;;;;-2.95;100.00;96036.02;108622;1276;25413;-85
2024/01/19 08:07:18;;;;;;;21.60;13.70;;;;;;;-2.91;100.00;96042.73;108472;1277;138408;-85
2024/01/19 08:09:45;;;;;;;20.00;13.00;;;;;;;-2.91;100.00;96052.02;108422;1283;22549;-85
2024/01/19 08:12:14;;;;;;;17.80;12.20;;;;;;;-2.91;100.00;96054.05;108457;1280;22534;-88
2024/01/19 08:14:55;;;;;;;15.50;10.00;;;;;;;-2.85;100.00;96058.39;108821;1275;23193;-88
2024/01/19 08:17:22;;;;;;;18.30;12.80;;;;;;;-2.87;100.00;96065.14;108584;1278;22614;-88
2024/01/19 08:19:49;;;;;;;16.80;11.70;;;;;;;-2.84;100.00;96078.46;108405;1280;137257;-88
2024/01/19 08:22:16;;;;;;;21.30;13.50;;;;;;;-2.80;100.00;96090.55;108448;1275;22594;-88
2024/01/19 08:24:43;;;;;;;20.30;12.70;;;;;;;-2.78;100.00;96093.47;108344;1283;138876;-86
2024/01/19 08:27:10;;;;;;;20.40;14.80;;;;;;;-2.74;100.00;96098.60;108473;1281;25286;-87
2024/01/19 08:29:36;;;;;;;22.50;15.20;;;;;;;-2.74;100.00;96104.01;108467;1282;22595;-84
2024/01/19 08:32:03;;;;;;;15.50;11.40;;;;;;;-2.71;100.00;96111.81;108402;1281;138534;-86
2024/01/19 08:34:30;;;;;;;23.30;14.10;;;;;;;-2.71;100.00;96116.60;108484;1268;22709;-86
2024/01/19 08:36:56;;;;;;;27.20;15.90;;;;;;;-2.75;100.00;96121.40;108514;1275;138536;-85
2024/01/19 08:39:24;;;;;;;24.90;15.80;;;;;;;-2.76;100.00;96130.12;108571;1276;22917;-86
2024/01/19 08:41:51;;;;;;;24.40;16.70;;;;;;;-2.72;100.00;96141.21;108528;1280;22588;-84
2024/01/19 08:44:18;;;;;;;21.80;15.80;;;;;;;-2.71;100.00;96144.87;108481;1278;138383;-85
2024/01/19 08:46:45;;;;;;;26.20;16.40;;;;;;;-2.69;100.00;96146.77;108470;1283;24245;-85
2024/01/19 08:49:12;;;;;;;25.90;15.40;;;;;;;-2.66;100.00;96155.35;108354;1277;138776;-85
2024/01/19 08:51:38;;;;;;;30.10;15.60;;;;;;;-2.64;100.00;96157.09;108440;1283;23408;-85
2024/01/19 08:54:05;;;;;;;31.60;16.70;;;;;;;-2.65;100.00;96161.73;108511;1282;22558;-85
2024/01/19 08:56:33;;;;;;;23.10;13.90;;;;;;;-2.65;100.00;96163.11;108403;1278;138355;-85
2024/01/19 08:59:00;;;;;;;23.60;15.30;;;;;;;-2.68;100.00;96162.62;108450;1282;22578;-85
2024/01/19 09:01:26;;;;;;;26.70;15.60;;;;;;;-2.72;100.00;96164.41;108390;1280;138731;-85
2024/01/19 09:03:53;;;;;;;25.90;16.00;;;;;;;-2.74;100.00;96171.54;108461;1282;22611;-85
2024/01/19 09:06:20;;;;;;;18.40;12.80;;;;;;;-2.72;100.00;96177.86;108477;1282;138613;-86
2024/01/19 09:08:46;;;;;;;24.80;15.70;;;;;;;-2.72;100.00;96187.02;108471;1280;23110;-86
2024/01/19 09:11:13;;;;;;;28.60;16.30;;;;;;;-2.76;100.00;96194.04;108345;1283;22649;-86
2024/01/19 09:13:40;;;;;;;26.50;14.60;;;;;;;-2.76;100.00;96208.98;108354;1267;138389;-85
2024/01/19 09:16:09;;;;;;;25.70;14.60;;;;;;;-2.76;100.00;96221.18;108430;1280;25402;-85
2024/01/19 09:18:39;;;;;;;26.00;15.90;;;;;;;-2.76;100.00;96231.70;108443;1282;138719;-86
2024/01/19 09:21:06;;;;;;;24.10;14.70;;;;;;;-2.80;100.00;96236.00;108412;1283;22583;-85
2024/01/19 09:23:32;;;;;;;26.20;14.80;;;;;;;-2.82;100.00;96245.31;108440;1278;22544;-86
2024/01/19 09:25:59;;;;;;;23.90;15.20;;;;;;;-2.82;100.00;96246.48;108254;1283;138523;-85
2024/01/19 09:28:25;;;;;;;19.50;13.10;;;;;;;-2.82;100.00;96243.94;108304;1283;22565;-85
2024/01/19 09:30:52;;;;;;;22.30;13.90;;;;;;;-2.78;100.00;96250.80;108357;1282;138474;-86
2024/01/19 09:33:19;;;;;;;23.50;14.80;;;;;;;-2.78;100.00;96251.45;108346;1275;24225;-85
2024/01/19 09:35:46;;;;;;;20.60;13.00;;;;;;;-2.78;100.00;96252.16;108435;1282;22554;-85
2024/01/19 09:38:12;;;;;;;22.00;14.70;;;;;;;-2.80;100.00;96253.27;108211;1276;138537;-85
2024/01/19 09:40:43;;;;;;;24.70;15.00;;;;;;;-2.79;100.00;96251.67;108419;1275;23570;-86
2024/01/19 09:43:11;;;;;;;23.60;14.70;;;;;;;-2.77;100.00;96250.04;108265;1280;138372;-85
2024/01/19 09:45:41;;;;;;;25.40;14.90;;;;;;;-2.75;100.00;96246.88;108569;1282;22599;-86
2024/01/19 09:48:22;;;;;;;22.00;14.10;;;;;;;-2.70;100.00;96240.45;108413;1280;24402;-85
2024/01/19 09:50:51;;;;;;;23.30;13.70;;;;;;;-2.67;100.00;96239.39;108453;1276;22550;-85
2024/01/19 09:53:25;;;;;;;21.50;13.60;;;;;;;-2.67;100.00;96244.45;108464;1275;22546;-86
2024/01/19 09:55:52;;;;;;;21.00;14.60;;;;;;;-2.65;100.00;96253.27;108282;1281;138335;-85
2024/01/19 09:58:20;;;;;;;21.10;13.30;;;;;;;-2.61;100.00;96257.30;108349;1284;24890;-86
2024/01/19 10:00:51;;;;;;;23.10;15.20;;;;;;;-2.57;100.00;96256.33;108394;1282;138588;-86
2024/01/19 10:03:17;;;;;;;25.10;16.10;;;;;;;-2.56;100.00;96262.38;108568;1283;22683;-86
2024/01/19 10:05:44;;;;;;;23.00;14.50;;;;;;;-2.55;100.00;96266.69;108451;1283;22535;-85
2024/01/19 10:08:14;;;;;;;22.90;13.70;;;;;;;-2.62;100.00;96266.16;108245;1281;138497;-85
2024/01/19 10:10:42;;;;;;;23.30;14.50;;;;;;;-2.66;100.00;96271.67;108467;1278;23131;-86
2024/01/19 10:13:12;;;;;;;26.00;16.40;;;;;;;-2.64;100.00;96276.13;108336;1283;140541;-85
2024/01/19 10:15:39;;;;;;;25.70;17.90;;;;;;;-2.61;100.00;96270.84;108477;1283;22579;-86
2024/01/19 10:18:05;;;;;;;26.10;15.70;;;;;;;-2.56;100.00;96266.94;108408;1281;22598;-85
2024/01/19 10:20:32;;;;;;;23.10;16.20;;;;;;;-2.51;100.00;96261.66;108419;1281;138379;-86
2024/01/19 10:23:18;;;;;;;27.80;17.60;;;;;;;-2.46;100.00;96256.23;108515;1284;22575;-84
2024/01/19 10:25:44;;;;;;;28.10;17.70;;;;;;;-2.43;100.00;96255.71;108411;1282;138370;-85
2024/01/19 10:28:28;;;;;;;30.90;19.10;;;;;;;-2.42;100.00;96260.89;108503;1280;22583;-85
2024/01/19 10:31:12;;;;;;;30.30;19.30;;;;;;;-2.42;100.00;96263.29;108367;1282;138559;-86
2024/01/19 10:33:47;;;;;;;25.80;15.20;;;;;;;-2.37;100.00;96266.88;108528;1283;22657;-85
2024/01/19 10:36:14;;;;;;;27.10;17.60;;;;;;;-2.34;100.00;96266.66;108446;1283;22757;-86
2024/01/19 10:38:40;;;;;;;23.80;16.80;;;;;;;-2.30;100.00;96267.19;108384;1278;138416;-86
2024/01/19 10:41:16;;;;;;;23.10;15.70;;;;;;;-2.29;100.00;96262.20;108386;1276;22602;-84
2024/01/19 10:43:43;;;;;;;24.70;16.90;;;;;;;-2.28;100.00;96264.15;108290;1282;138526;-85
2024/01/19 10:46:20;;;;;;;23.90;17.30;;;;;;;-2.24;100.00;96266.14;108424;1277;22592;-86
2024/01/19 10:48:49;;;;;;;26.20;17.30;;;;;;;-2.24;100.00;96275.26;108249;1282;138672;-86
2024/01/19 10:51:20;;;;;;;25.50;15.50;;;;;;;-2.25;100.00;96282.49;108452;1282;22546;-85
2024/01/19 10:53:51;;;;;;;28.90;19.30;;;;;;;-2.24;100.00;96289.02;108462;1275;23326;-85
2024/01/19 10:56:24;;;;;;;26.60;16.90;;;;;;;-2.27;100.00;96300.90;108239;1280;138343;-85
2024/01/19 10:58:51;;;;;;;28.20;20.10;;;;;;;-2.24;100.00;96302.63;108494;1278;22724;-86
2024/01/19 11:01:18;;;;;;;28.00;18.90;;;;;;;-2.23;100.00;96294.20;108335;1283;138297;-85
2024/01/19 11:03:45;;;;;;;26.40;17.30;;;;;;;-2.19;100.00;96296.77;108368;1282;22595;-85
2024/01/19 11:06:12;;;;;;;26.80;16.90;;;;;;;-2.16;100.00;96314.41;108531;1283;22546;-86
2024/01/19 11:08:39;;;;;;;26.80;18.60;;;;;;;-2.20;100.00;96310.29;108366;1282;138908;-86
2024/01/19 11:11:05;;;;;;;30.50;19.70;;;;;;;-2.22;100.00;96305.19;108447;1281;22671;-85
2024/01/19 11:13:37;;;;;;;25.20;19.30;;;;;;;-2.20;100.00;96297.19;108345;1278;138516;-85
2024/01/19 11:16:10;;;;;;;24.00;15.00;;;;;;;-2.16;100.00;96295.74;108444;1275;22551;-86
2024/01/19 11:18:37;;;;;;;28.90;19.90;;;;;;;-2.10;100.00;96302.95;108344;1281;138608;-85
2024/01/19 11:21:05;;;;;;;34.00;21.40;;;;;;;-2.02;100.00;96302.30;108456;1283;25439;-85
2024/01/19 11:23:33;;;;;;;36.00;25.70;;;;;;;-1.99;100.00;96293.04;108461;1283;22632;-85
2024/01/19 11:26:14;;;;;;;32.00;21.90;;;;;;;-1.96;100.00;96288.27;108362;1281;138557;-85
2024/01/19 11:28:59;;;;;;;31.70;21.40;;;;;;;-1.95;100.00;96298.02;108519;1281;22569;-85
2024/01/19 11:31:31;;;;;;;28.20;19.60;;;;;;;-1.96;100.00;96304.18;108530;1281;138277;-85
2024/01/19 11:33:59;;;;;;;38.00;23.10;;;;;;;-1.96;100.00;96300.80;108405;1284;22581;-86
2024/01/19 11:36:41;;;;;;;36.50;23.40;;;;;;;-1.99;100.00;96301.00;108301;1282;138459;-85
2024/01/19 11:39:14;;;;;;;36.20;22.80;;;;;;;-1.96;100.00;96300.27;108520;1275;23769;-85
2024/01/19 11:41:43;;;;;;;42.70;26.40;;;;;;;-1.94;100.00;96291.02;108456;1280;22571;-85
2024/01/19 11:44:30;;;;;;;55.70;31.00;;;;;;;-1.97;100.00;96298.16;108356;1275;138672;-85
2024/01/19 11:46:57;;;;;;;54.80;34.00;;;;;;;-1.90;100.00;96307.70;108505;1277;22555;-85
2024/01/19 11:49:30;;;;;;;145.50;91.00;;;;;;;-1.87;100.00;96309.15;108497;1271;138392;-85
2024/01/19 11:51:57;;;;;;;53.70;35.30;;;;;;;-1.84;100.00;96299.96;108632;1282;25250;-85
2024/01/19 11:54:27;;;;;;;44.20;26.20;;;;;;;-1.81;100.00;96296.14;108190;1283;138932;-85
2024/01/19 11:57:17;;;;;;;38.40;23.00;;;;;;;-1.77;99.97;96300.70;108317;1282;22533;-85
2024/01/19 11:59:44;;;;;;;30.20;19.70;;;;;;;-1.75;99.79;96304.58;108444;1282;22629;-85
2024/01/19 12:02:26;;;;;;;33.00;22.00;;;;;;;-1.79;99.48;96310.13;108196;1279;138164;-85
2024/01/19 12:04:54;;;;;;;32.50;21.70;;;;;;;-1.82;99.88;96316.09;108353;1283;22584;-85